Time;durP1;ratioP1;P1;durP2;ratioP2;P2;SDS_P1;SDS_P2;PMS_P1;PMS_P2;Temp;Humidity;BMP_temperature;BMP_pressure;BME280_temperature;BME280_humidity;BME280_pressure;Samples;Min_cycle;Max_cycle;Signal;HPM_P1;HPM_P2
2022/04/26 03:37:52;;;;;;;10.13;7.97;;;4.70;99.90;;;;;;5072422;28;20660;-71
2022/04/26 03:40:20;;;;;;;11.20;8.27;;;4.70;99.90;;;;;;5100098;28;20697;-74
2022/04/26 03:42:48;;;;;;;11.98;9.65;;;4.70;99.90;;;;;;5096271;28;20242;-74
2022/04/26 03:45:16;;;;;;;13.40;8.50;;;4.70;99.90;;;;;;5110948;28;20229;-72
2022/04/26 03:47:44;;;;;;;11.93;8.18;;;4.80;99.90;;;;;;5104196;28;20204;-73
2022/04/26 03:50:13;;;;;;;12.20;8.07;;;4.80;99.90;;;;;;5103016;28;20208;-72
2022/04/26 03:52:41;;;;;;;11.35;8.80;;;4.80;99.90;;;;;;5100558;28;20219;-72
2022/04/26 03:55:09;;;;;;;10.40;8.30;;;4.90;99.90;;;;;;5102541;28;20279;-72
2022/04/26 03:57:37;;;;;;;12.70;8.50;;;4.90;99.90;;;;;;5102250;28;20200;-72
2022/04/26 04:00:06;;;;;;;13.38;8.80;;;4.90;99.90;;;;;;5102842;28;20275;-72
2022/04/26 04:02:34;;;;;;;10.07;7.38;;;4.90;99.90;;;;;;5087122;28;20220;-72
2022/04/26 04:05:02;;;;;;;11.75;8.38;;;4.90;99.90;;;;;;5082237;28;20699;-71
2022/04/26 04:07:31;;;;;;;11.43;8.35;;;5.00;99.90;;;;;;5081087;28;20239;-71
2022/04/26 04:09:59;;;;;;;10.93;8.02;;;5.00;99.90;;;;;;5081503;28;20292;-72
2022/04/26 04:12:27;;;;;;;9.98;8.15;;;5.00;99.90;;;;;;5080832;28;20225;-70
2022/04/26 04:14:55;;;;;;;11.82;7.50;;;5.00;99.90;;;;;;5082223;28;20200;-70
2022/04/26 04:17:23;;;;;;;9.55;7.82;;;5.10;99.90;;;;;;5094784;28;20227;-72
2022/04/26 04:19:50;;;;;;;11.30;8.43;;;5.00;99.90;;;;;;5081901;28;20197;-72
2022/04/26 04:22:18;;;;;;;9.75;7.97;;;5.10;99.90;;;;;;5081548;28;20227;-72
2022/04/26 04:24:47;;;;;;;9.40;7.75;;;5.10;99.90;;;;;;5082151;28;20307;-71
2022/04/26 04:27:15;;;;;;;9.57;7.70;;;5.20;99.90;;;;;;5085314;28;20198;-72
2022/04/26 04:29:44;;;;;;;10.88;7.38;;;5.20;99.90;;;;;;5082106;28;20204;-74
2022/04/26 04:32:12;;;;;;;11.35;7.85;;;5.20;99.90;;;;;;5083083;28;20230;-75
2022/04/26 04:34:40;;;;;;;11.60;8.50;;;5.30;99.90;;;;;;5085080;28;20461;-75
2022/04/26 04:37:08;;;;;;;12.40;8.25;;;5.30;99.90;;;;;;5089717;28;20218;-75
2022/04/26 04:39:36;;;;;;;11.20;8.15;;;5.30;99.90;;;;;;5081178;28;20235;-75
2022/04/26 04:42:06;;;;;;;10.27;7.97;;;5.40;99.90;;;;;;5081268;28;20255;-76
2022/04/26 04:44:34;;;;;;;9.85;7.95;;;5.40;99.90;;;;;;5097183;27;20211;-74
2022/04/26 04:47:02;;;;;;;12.55;8.77;;;5.50;99.90;;;;;;5102617;28;20319;-76
2022/04/26 04:49:30;;;;;;;13.85;8.95;;;5.50;99.90;;;;;;5103149;28;20203;-75
2022/04/26 04:51:58;;;;;;;12.27;8.20;;;5.50;99.90;;;;;;5103401;28;20215;-74
2022/04/26 04:54:28;;;;;;;11.05;7.32;;;5.60;99.90;;;;;;5098759;28;20207;-75
2022/04/26 04:56:56;;;;;;;11.40;9.10;;;5.60;99.90;;;;;;5082750;28;20243;-76
2022/04/26 04:59:28;;;;;;;11.23;7.75;;;5.60;99.90;;;;;;5082314;28;20574;-75
2022/04/26 05:01:59;;;;;;;9.38;7.50;;;5.70;99.90;;;;;;5085639;28;20288;-76
2022/04/26 05:04:27;;;;;;;12.00;8.45;;;5.70;99.90;;;;;;5080272;28;20244;-74
2022/04/26 05:06:54;;;;;;;10.77;7.40;;;5.80;99.90;;;;;;5094998;28;20603;-74
2022/04/26 05:09:22;;;;;;;10.40;8.85;;;5.90;99.90;;;;;;5101081;28;20223;-75
2022/04/26 05:11:50;;;;;;;10.82;8.00;;;5.90;99.90;;;;;;5099435;28;20586;-76
2022/04/26 05:14:18;;;;;;;11.52;7.50;;;6.00;99.90;;;;;;5095475;28;20385;-76
2022/04/26 05:16:47;;;;;;;8.93;7.72;;;6.00;99.90;;;;;;5091519;28;20449;-75
2022/04/26 05:19:15;;;;;;;12.27;8.50;;;6.10;99.90;;;;;;5090235;28;20200;-75
2022/04/26 05:21:43;;;;;;;9.07;8.02;;;6.20;99.90;;;;;;5090911;28;20496;-74
2022/04/26 05:26:57;;;;;;;13.73;7.72;;;6.30;99.90;;;;;;5102048;28;20315;-73
2022/04/26 05:29:24;;;;;;;11.40;8.40;;;6.40;99.90;;;;;;5094249;27;20203;-73
2022/04/26 05:31:54;;;;;;;7.38;6.63;;;6.50;99.90;;;;;;5089337;28;20215;-74
2022/04/26 05:34:22;;;;;;;12.05;8.40;;;6.60;99.90;;;;;;5087503;28;20223;-74
2022/04/26 05:36:49;;;;;;;12.35;8.90;;;6.70;99.90;;;;;;5080986;28;20574;-74
2022/04/26 05:39:17;;;;;;;11.90;8.98;;;6.70;99.90;;;;;;5082745;28;20249;-74
2022/04/26 05:41:45;;;;;;;11.63;9.02;;;6.80;99.90;;;;;;5081331;28;20307;-74
2022/04/26 05:44:13;;;;;;;12.65;8.50;;;6.80;99.90;;;;;;5083263;28;20228;-74
2022/04/26 05:46:41;;;;;;;13.40;9.73;;;6.90;99.90;;;;;;5086897;28;20788;-72
2022/04/26 05:49:10;;;;;;;14.27;10.32;;;6.90;99.90;;;;;;5086691;28;20291;-73
2022/04/26 05:51:38;;;;;;;14.45;8.70;;;7.10;99.90;;;;;;5101007;28;20420;-73
2022/04/26 05:54:06;;;;;;;14.10;9.05;;;7.20;99.90;;;;;;5089604;28;20200;-74
2022/04/26 05:56:33;;;;;;;13.07;9.85;;;7.50;99.90;;;;;;5083249;28;20199;-73
2022/04/26 05:59:01;;;;;;;12.15;9.18;;;7.70;99.90;;;;;;5100712;28;20686;-72
2022/04/26 06:01:29;;;;;;;10.45;8.27;;;8.00;99.90;;;;;;5101754;28;20459;-72
2022/04/26 06:03:57;;;;;;;11.38;9.32;;;8.30;99.90;;;;;;5100999;28;20196;-75
2022/04/26 06:06:27;;;;;;;9.90;8.35;;;8.60;99.90;;;;;;5088699;28;20232;-73
2022/04/26 06:08:55;;;;;;;10.30;8.82;;;8.80;99.90;;;;;;5088379;28;20459;-71
2022/04/26 06:11:23;;;;;;;9.65;8.70;;;8.90;99.90;;;;;;5088481;28;20234;-71
2022/04/26 06:13:51;;;;;;;11.02;8.32;;;9.00;99.90;;;;;;5088388;28;20708;-70
2022/04/26 06:16:19;;;;;;;10.30;8.50;;;9.10;99.90;;;;;;5079276;28;20283;-71
2022/04/26 06:18:47;;;;;;;11.05;8.73;;;9.10;99.90;;;;;;5079588;28;20205;-71
2022/04/26 06:21:15;;;;;;;11.52;8.55;;;9.20;99.90;;;;;;5096102;28;20216;-71
2022/04/26 06:23:45;;;;;;;10.48;8.52;;;9.20;99.90;;;;;;5092227;28;20203;-71
2022/04/26 06:26:13;;;;;;;8.25;7.40;;;9.20;99.90;;;;;;5086424;28;20224;-73
2022/04/26 06:28:41;;;;;;;8.75;7.88;;;9.20;99.90;;;;;;5095580;28;20200;-73
2022/04/26 06:31:10;;;;;;;10.93;8.30;;;9.30;99.90;;;;;;5104186;28;20225;-73
2022/04/26 06:33:38;;;;;;;10.40;8.50;;;9.50;99.90;;;;;;5100975;28;20196;-73
2022/04/26 06:36:06;;;;;;;9.05;7.85;;;9.80;99.90;;;;;;5095629;28;20255;-74
2022/04/26 06:38:35;;;;;;;10.18;8.05;;;10.10;99.90;;;;;;5092902;28;20279;-73
2022/04/26 06:41:05;;;;;;;8.23;6.95;;;10.30;99.90;;;;;;5095970;28;20220;-73
2022/04/26 06:43:34;;;;;;;8.83;7.40;;;10.50;99.90;;;;;;5093515;28;20196;-73
2022/04/26 06:46:03;;;;;;;8.83;7.60;;;10.60;99.90;;;;;;5092011;28;20473;-74
2022/04/26 06:48:31;;;;;;;7.20;6.50;;;10.80;99.90;;;;;;5097072;28;21065;-73
2022/04/26 06:50:59;;;;;;;8.83;8.00;;;11.00;99.90;;;;;;5098009;28;20542;-73
2022/04/26 06:53:27;;;;;;;14.50;6.23;;;11.10;99.90;;;;;;5105305;28;20475;-73
2022/04/26 06:55:55;;;;;;;7.97;6.20;;;11.30;99.90;;;;;;5101918;28;21042;-79
2022/04/26 06:58:24;;;;;;;6.47;5.87;;;11.40;99.90;;;;;;5090458;28;20712;-73
2022/04/26 07:00:55;;;;;;;8.33;6.00;;;11.60;99.90;;;;;;5105183;28;21127;-75
2022/04/26 07:03:22;;;;;;;7.20;6.50;;;11.80;99.90;;;;;;5086932;28;20518;-72
2022/04/26 07:05:53;;;;;;;6.90;6.20;;;11.90;99.90;;;;;;5084186;28;20461;-73
2022/04/26 07:08:21;;;;;;;7.03;6.23;;;12.00;99.90;;;;;;5102253;28;20445;-72
2022/04/26 07:10:51;;;;;;;7.33;6.67;;;12.10;99.90;;;;;;5104444;28;20483;-72
2022/04/26 07:13:22;;;;;;;6.43;5.40;;;12.20;99.90;;;;;;5107511;28;20495;-72
2022/04/26 07:15:51;;;;;;;6.37;5.77;;;12.30;99.90;;;;;;5106053;28;20444;-71
2022/04/26 07:18:19;;;;;;;6.53;5.90;;;12.40;99.90;;;;;;5103502;28;20960;-75
2022/04/26 07:20:47;;;;;;;7.57;6.27;;;12.50;99.90;;;;;;5098235;28;20477;-72
2022/04/26 07:23:15;;;;;;;11.33;6.50;;;12.60;99.90;;;;;;5096843;28;20456;-72
2022/04/26 07:25:43;;;;;;;6.73;6.03;;;12.70;99.90;;;;;;5102288;28;20557;-70
2022/04/26 07:28:11;;;;;;;6.53;5.33;;;12.90;99.90;;;;;;5102883;28;20488;-71
2022/04/26 07:30:44;;;;;;;6.97;6.37;;;13.00;99.90;;;;;;5104682;28;20440;-72
2022/04/26 07:35:59;;;;;;;6.07;5.47;;;12.90;99.90;;;;;;5094282;28;20453;-74
2022/04/26 07:38:29;;;;;;;4.80;4.40;;;12.80;99.90;;;;;;5097764;28;20422;-75
2022/04/26 07:40:57;;;;;;;7.10;5.40;;;12.70;99.90;;;;;;5093717;28;20679;-76
2022/04/26 07:43:25;;;;;;;8.50;6.73;;;12.60;99.90;;;;;;5098833;28;20489;-77
2022/04/26 07:45:53;;;;;;;6.40;5.80;;;12.50;99.90;;;;;;5106977;28;20447;-77
2022/04/26 07:48:22;;;;;;;5.23;4.80;;;12.60;99.90;;;;;;5110681;28;20891;-76
2022/04/26 07:50:51;;;;;;;6.97;5.27;;;12.60;99.90;;;;;;5101285;27;20438;-75
2022/04/26 07:53:18;;;;;;;6.20;5.60;;;12.70;99.90;;;;;;5097353;28;21038;-76
2022/04/26 07:55:47;;;;;;;5.00;4.57;;;12.70;99.90;;;;;;5105116;28;20438;-73
2022/04/26 07:58:15;;;;;;;5.40;4.57;;;12.70;99.90;;;;;;5103767;28;20868;-74
2022/04/26 08:00:45;;;;;;;5.77;5.27;;;12.70;99.90;;;;;;5083925;28;20442;-73
2022/04/26 08:03:13;;;;;;;5.20;4.80;;;12.70;99.90;;;;;;5088068;28;20938;-73
2022/04/26 08:05:42;;;;;;;5.40;5.00;;;12.80;99.90;;;;;;5088058;28;20530;-73
2022/04/26 08:08:10;;;;;;;5.27;4.77;;;12.90;99.90;;;;;;5107511;28;20479;-74
2022/04/26 08:10:38;;;;;;;9.07;6.07;;;13.00;99.90;;;;;;5107965;28;20467;-76
2022/04/26 08:13:09;;;;;;;6.77;6.10;;;13.00;99.90;;;;;;5091724;28;20485;-75
2022/04/26 08:15:37;;;;;;;7.90;6.07;;;13.10;99.90;;;;;;5082911;28;20445;-76
2022/04/26 08:18:05;;;;;;;6.90;6.20;;;13.10;99.90;;;;;;5102486;28;20461;-76
2022/04/26 08:20:33;;;;;;;5.80;5.23;;;13.30;99.90;;;;;;5102699;28;20452;-79
2022/04/26 08:23:03;;;;;;;6.40;5.70;;;13.30;99.90;;;;;;5083670;28;20621;-70
2022/04/26 08:28:16;;;;;;;5.67;5.17;;;13.40;99.90;;;;;;5096839;28;20575;-73
2022/04/26 08:30:44;;;;;;;8.80;5.90;;;13.50;99.90;;;;;;5099030;28;20789;-72
2022/04/26 08:33:12;;;;;;;6.30;5.70;;;13.40;99.90;;;;;;5099761;28;20437;-73
2022/04/26 08:35:40;;;;;;;6.33;4.90;;;13.40;99.90;;;;;;5100146;28;20453;-73
2022/04/26 08:38:29;;;;;;;8.67;5.50;;;13.40;99.90;;;;;;5100543;28;20964;-74
2022/04/26 08:40:57;;;;;;;5.07;4.57;;;13.40;99.90;;;;;;5106462;27;20461;-75
2022/04/26 08:43:27;;;;;;;5.27;4.80;;;13.30;99.90;;;;;;5099602;28;20433;-74
2022/04/26 08:45:58;;;;;;;4.67;4.27;;;13.40;99.90;;;;;;5101278;28;20430;-73
2022/04/26 08:51:13;;;;;;;5.00;4.50;;;13.40;99.90;;;;;;5100861;28;20532;-73
2022/04/26 08:53:44;;;;;;;5.17;4.73;;;13.50;99.90;;;;;;5100182;28;20532;-73
2022/04/26 08:56:12;;;;;;;5.33;4.93;;;13.50;99.90;;;;;;5101011;28;20505;-73
2022/04/26 08:58:41;;;;;;;4.90;4.40;;;13.70;99.90;;;;;;5102394;28;20422;-73
2022/04/26 09:01:11;;;;;;;4.50;4.10;;;13.80;99.90;;;;;;5100724;28;20497;-73
2022/04/26 09:03:40;;;;;;;5.33;4.83;;;14.00;99.90;;;;;;5101186;28;20613;-73
2022/04/26 09:06:13;;;;;;;4.73;4.10;;;14.20;99.90;;;;;;5100924;28;20437;-73
2022/04/26 09:08:44;;;;;;;4.77;4.40;;;14.40;99.90;;;;;;5101374;28;20458;-73
2022/04/26 09:11:26;;;;;;;4.10;3.80;;;14.50;99.90;;;;;;5102176;28;20461;-73
2022/04/26 09:13:55;;;;;;;4.77;4.37;;;14.60;99.90;;;;;;5101981;28;20607;-73
2022/04/26 09:16:23;;;;;;;3.53;3.33;;;14.70;99.60;;;;;;5102308;28;20537;-72
2022/04/26 09:18:54;;;;;;;4.77;4.37;;;14.60;99.50;;;;;;5102756;28;20637;-73
2022/04/26 09:21:22;;;;;;;4.70;4.17;;;14.50;99.50;;;;;;5102255;28;20468;-75
2022/04/26 09:23:52;;;;;;;4.93;4.60;;;14.40;99.00;;;;;;5102505;28;20554;-73
2022/04/26 09:26:20;;;;;;;5.07;4.67;;;14.20;99.10;;;;;;5101765;28;20536;-72
2022/04/26 09:28:50;;;;;;;5.03;4.63;;;14.10;99.40;;;;;;5100670;28;20485;-73
2022/04/26 09:31:20;;;;;;;4.80;4.43;;;14.00;99.50;;;;;;5101193;28;20513;-73
2022/04/26 09:33:51;;;;;;;4.53;4.13;;;14.00;99.60;;;;;;5101714;28;20460;-73
2022/04/26 09:36:21;;;;;;;4.20;3.90;;;13.90;99.70;;;;;;5101579;28;20428;-73
2022/04/26 09:38:52;;;;;;;4.80;4.40;;;13.90;99.50;;;;;;5100932;28;20537;-73
2022/04/26 09:41:21;;;;;;;6.70;4.60;;;13.90;99.70;;;;;;5101275;28;20458;-73
2022/04/26 09:44:03;;;;;;;5.93;4.73;;;13.90;99.40;;;;;;5104484;28;20619;-72
2022/04/26 09:46:48;;;;;;;5.07;4.63;;;13.90;99.30;;;;;;5112578;28;20450;-72
2022/04/26 09:49:19;;;;;;;4.03;3.70;;;13.80;99.90;;;;;;5103004;28;20504;-73
2022/04/26 09:51:48;;;;;;;5.27;4.77;;;13.80;99.70;;;;;;5102929;28;20490;-75
2022/04/26 09:54:17;;;;;;;5.10;4.70;;;13.90;99.40;;;;;;5104113;27;20461;-76
2022/04/26 09:56:46;;;;;;;6.30;5.33;;;13.90;99.30;;;;;;5106513;27;20929;-76
2022/04/26 09:59:19;;;;;;;5.90;5.40;;;14.00;99.70;;;;;;5104851;28;20535;-74
2022/04/26 10:01:54;;;;;;;5.40;4.90;;;14.10;99.30;;;;;;5102719;28;20461;-75
2022/04/26 10:04:25;;;;;;;5.50;5.10;;;14.20;99.30;;;;;;5104655;28;21027;-75
2022/04/26 10:06:58;;;;;;;6.07;5.53;;;14.10;99.80;;;;;;5094641;28;20445;-75
2022/04/26 10:09:29;;;;;;;5.70;5.20;;;14.10;99.30;;;;;;5109336;27;20785;-76
2022/04/26 10:11:58;;;;;;;4.90;4.60;;;14.20;99.00;;;;;;5112214;27;20489;-76
2022/04/26 10:14:28;;;;;;;5.60;4.80;;;14.30;99.20;;;;;;5112122;28;20475;-76
2022/04/26 10:16:57;;;;;;;5.97;5.03;;;14.40;99.80;;;;;;5113050;28;20447;-75
2022/04/26 10:19:37;;;;;;;5.30;4.80;;;14.60;99.20;;;;;;5116135;28;20438;-75
2022/04/26 10:22:07;;;;;;;5.00;4.60;;;14.90;98.50;;;;;;5095685;28;20458;-77
2022/04/26 10:24:39;;;;;;;9.20;6.10;;;15.10;98.20;;;;;;5129676;28;20445;-76
2022/04/26 10:27:20;;;;;;;4.40;4.00;;;15.20;97.90;;;;;;5101597;28;20430;-75
2022/04/26 10:29:50;;;;;;;5.50;5.00;;;15.30;98.20;;;;;;5105308;28;20509;-77
2022/04/26 10:32:31;;;;;;;6.83;5.70;;;15.40;97.90;;;;;;5114725;28;20480;-73
2022/04/26 10:35:29;;;;;;;6.10;4.73;;;15.40;97.40;;;;;;5100773;27;20445;-74
2022/04/26 10:38:12;;;;;;;5.60;5.20;;;15.40;97.20;;;;;;5107400;28;20450;-74
2022/04/26 10:41:08;;;;;;;5.60;5.17;;;15.50;97.10;;;;;;5093497;28;20442;-72
2022/04/26 10:43:38;;;;;;;6.07;5.57;;;15.50;97.30;;;;;;5095958;28;20456;-74
2022/04/26 10:46:10;;;;;;;5.27;4.77;;;15.70;97.20;;;;;;5088796;28;20805;-75
2022/04/26 10:48:39;;;;;;;5.53;5.13;;;16.00;97.30;;;;;;5094959;28;20569;-75
2022/04/26 10:51:35;;;;;;;5.87;5.37;;;16.20;96.60;;;;;;5102913;27;20473;-74
2022/04/26 10:54:03;;;;;;;6.03;5.53;;;16.30;96.40;;;;;;5109468;28;20529;-73
2022/04/26 10:56:32;;;;;;;5.50;5.10;;;16.30;96.10;;;;;;5120650;27;20468;-74
2022/04/26 10:59:01;;;;;;;4.97;4.57;;;16.30;95.70;;;;;;5104022;27;20921;-74
2022/04/26 11:01:29;;;;;;;9.20;4.90;;;16.30;95.60;;;;;;5092082;28;20671;-72
2022/04/26 11:03:59;;;;;;;5.20;4.80;;;16.30;95.70;;;;;;5090936;28;20802;-72
2022/04/26 11:06:34;;;;;;;6.57;4.67;;;16.30;96.00;;;;;;5087027;28;20736;-73
2022/04/26 11:09:09;;;;;;;5.27;4.87;;;16.30;95.30;;;;;;5095952;28;20569;-74
2022/04/26 11:11:49;;;;;;;4.87;4.47;;;16.30;95.10;;;;;;5105966;28;20450;-72
2022/04/26 11:14:24;;;;;;;5.37;4.97;;;16.20;95.70;;;;;;5101409;27;20457;-72
2022/04/26 11:16:56;;;;;;;4.87;4.47;;;16.30;95.00;;;;;;5095449;27;20990;-72
2022/04/26 11:19:32;;;;;;;4.70;4.40;;;16.20;95.20;;;;;;5099227;28;20430;-73
2022/04/26 11:22:05;;;;;;;5.33;4.87;;;16.20;95.30;;;;;;5094276;27;20508;-72
2022/04/26 11:30:09;;;;;;;10.40;4.93;;;16.40;95.00;;;;;;5098219;28;20854;-73
2022/04/26 11:32:42;;;;;;;5.50;5.00;;;16.40;94.60;;;;;;5091220;28;20511;-72
2022/04/26 11:35:11;;;;;;;6.73;4.10;;;16.40;94.30;;;;;;5087569;28;20439;-73
2022/04/26 11:37:45;;;;;;;5.47;5.03;;;16.30;94.70;;;;;;5097157;28;20995;-73
2022/04/26 11:40:21;;;;;;;6.10;5.60;;;16.40;94.30;;;;;;5089156;28;20430;-72
2022/04/26 11:42:51;;;;;;;5.63;4.90;;;16.40;94.00;;;;;;5100149;28;20454;-72
2022/04/26 11:45:19;;;;;;;6.00;5.50;;;16.30;93.90;;;;;;5105894;28;20445;-75
2022/04/26 11:47:49;;;;;;;5.20;4.80;;;16.00;94.10;;;;;;5110711;28;20465;-74
2022/04/26 11:50:24;;;;;;;5.40;5.00;;;15.80;94.30;;;;;;5103036;27;20560;-72
2022/04/26 11:52:55;;;;;;;5.63;4.40;;;15.70;94.40;;;;;;5116901;27;20999;-73
2022/04/26 11:55:27;;;;;;;4.63;4.33;;;15.60;94.50;;;;;;5121083;27;20472;-74
2022/04/26 11:58:08;;;;;;;5.93;5.43;;;15.60;94.70;;;;;;5121834;27;20459;-73
2022/04/26 12:00:37;;;;;;;5.73;4.97;;;15.60;94.20;;;;;;5104374;27;20540;-73
2022/04/26 12:03:09;;;;;;;5.30;4.80;;;15.60;94.80;;;;;;5117560;27;20450;-72
2022/04/26 12:05:40;;;;;;;5.43;4.93;;;15.70;95.10;;;;;;5108096;27;20452;-73
2022/04/26 12:08:12;;;;;;;5.37;4.87;;;15.90;94.50;;;;;;5109336;27;20497;-72
2022/04/26 12:10:40;;;;;;;8.70;5.70;;;16.10;94.00;;;;;;5104256;28;20522;-72
2022/04/26 12:13:09;;;;;;;5.90;5.47;;;16.30;94.10;;;;;;5104352;28;21010;-73
2022/04/26 12:15:39;;;;;;;4.87;4.57;;;16.50;94.00;;;;;;5102288;27;20808;-71
2022/04/26 12:18:14;;;;;;;4.60;4.30;;;16.80;94.30;;;;;;5104497;27;20482;-73
2022/04/26 12:21:00;;;;;;;5.60;5.20;;;16.90;94.30;;;;;;5117399;27;20483;-73
2022/04/26 12:23:29;;;;;;;5.67;5.17;;;17.10;94.10;;;;;;5096575;27;20446;-72
2022/04/26 12:26:01;;;;;;;4.87;4.43;;;17.20;93.70;;;;;;5095515;28;20447;-73
2022/04/26 12:28:30;;;;;;;7.07;5.10;;;17.30;93.50;;;;;;5098748;28;20810;-72
2022/04/26 12:30:59;;;;;;;4.67;4.37;;;17.40;92.00;;;;;;5087390;28;20566;-72
2022/04/26 12:33:30;;;;;;;4.73;4.43;;;17.50;91.70;;;;;;5090241;28;20737;-73
2022/04/26 12:36:04;;;;;;;4.23;3.90;;;17.50;91.40;;;;;;5094198;28;20470;-72
2022/04/26 12:38:32;;;;;;;5.17;4.73;;;17.50;91.50;;;;;;5101158;27;20462;-71
2022/04/26 12:41:05;;;;;;;4.13;3.93;;;17.60;91.80;;;;;;5113588;28;20523;-72
2022/04/26 12:43:34;;;;;;;4.80;4.03;;;17.70;91.80;;;;;;5104920;27;21004;-71
2022/04/26 12:46:04;;;;;;;4.43;4.07;;;17.90;92.20;;;;;;5095475;28;20990;-71
2022/04/26 12:51:27;;;;;;;5.27;4.90;;;18.20;91.70;;;;;;5105292;27;20872;-71
2022/04/26 12:54:08;;;;;;;5.20;4.70;;;18.10;91.90;;;;;;5105456;27;20884;-74
2022/04/26 12:56:37;;;;;;;6.10;5.50;;;17.90;92.40;;;;;;5109077;27;20491;-72
2022/04/26 12:59:15;;;;;;;4.13;3.83;;;17.80;92.10;;;;;;5112093;27;20454;-71
2022/04/26 13:01:43;;;;;;;4.90;4.50;;;17.80;92.30;;;;;;5113115;27;20772;-72
2022/04/26 13:04:11;;;;;;;5.20;4.80;;;17.70;91.80;;;;;;5107709;27;20591;-72
2022/04/26 13:06:40;;;;;;;5.10;4.70;;;17.50;91.60;;;;;;5111815;27;20493;-71
2022/04/26 13:09:28;;;;;;;5.67;5.20;;;17.40;91.40;;;;;;5108736;27;20840;-72
2022/04/26 13:11:56;;;;;;;5.73;5.27;;;17.40;91.50;;;;;;5109827;27;20468;-71
2022/04/26 13:14:26;;;;;;;6.23;5.40;;;17.20;91.20;;;;;;5110422;27;20461;-72
2022/04/26 13:17:10;;;;;;;5.40;5.03;;;17.10;91.40;;;;;;5095089;27;20637;-71
2022/04/26 13:19:40;;;;;;;4.43;4.10;;;16.90;91.30;;;;;;5098625;27;20438;-73
2022/04/26 13:22:08;;;;;;;4.97;4.57;;;16.90;91.60;;;;;;5109094;27;20465;-73
2022/04/26 13:24:36;;;;;;;4.20;3.67;;;16.90;91.70;;;;;;5095288;27;20437;-73
2022/04/26 13:27:06;;;;;;;5.00;4.60;;;16.90;92.00;;;;;;5101677;27;20473;-72
2022/04/26 13:29:35;;;;;;;5.10;4.60;;;17.00;92.30;;;;;;5093308;28;21118;-72
2022/04/26 13:32:04;;;;;;;6.03;4.73;;;17.20;91.60;;;;;;5094176;28;20460;-72
2022/04/26 13:34:33;;;;;;;5.40;4.90;;;17.10;91.30;;;;;;5094063;28;20435;-72
2022/04/26 13:37:07;;;;;;;6.07;4.93;;;17.00;91.60;;;;;;5097427;28;21807;-71
2022/04/26 13:39:35;;;;;;;6.03;5.63;;;17.00;91.90;;;;;;5093320;27;20521;-71
2022/04/26 13:42:05;;;;;;;7.13;6.40;;;17.00;91.80;;;;;;5102466;28;20560;-72
2022/04/26 13:44:34;;;;;;;4.77;4.47;;;17.10;92.20;;;;;;5105147;28;20442;-72
2022/04/26 13:47:06;;;;;;;5.10;4.70;;;17.30;92.00;;;;;;5109314;28;20461;-72
2022/04/26 13:49:35;;;;;;;4.67;4.27;;;17.50;91.60;;;;;;5112337;28;20700;-71
2022/04/26 13:52:06;;;;;;;5.47;4.80;;;17.50;91.00;;;;;;5110684;28;20520;-72
2022/04/26 13:54:34;;;;;;;4.47;4.13;;;17.40;91.20;;;;;;5114981;28;20538;-73
2022/04/26 13:57:05;;;;;;;5.03;4.63;;;17.30;90.60;;;;;;5114282;28;20439;-73
2022/04/26 13:59:33;;;;;;;5.10;4.40;;;17.10;90.60;;;;;;5102351;28;21108;-71
2022/04/26 14:02:05;;;;;;;5.27;4.77;;;16.90;91.10;;;;;;5098849;27;20458;-72
2022/04/26 14:04:34;;;;;;;5.20;4.80;;;16.80;91.50;;;;;;5096679;28;20495;-72
2022/04/26 14:07:03;;;;;;;5.50;5.00;;;16.80;91.80;;;;;;5092566;28;20513;-71
2022/04/26 14:09:30;;;;;;;5.40;4.90;;;16.90;91.80;;;;;;5090463;28;20500;-72
2022/04/26 14:11:59;;;;;;;4.70;4.10;;;17.00;90.80;;;;;;5090273;28;20996;-72
2022/04/26 14:22:46;;;;;;;6.53;5.97;;;17.40;91.50;;;;;;5090923;28;20537;-72
2022/04/26 14:25:15;;;;;;;5.83;5.40;;;17.30;91.50;;;;;;5099951;28;20494;-72
2022/04/26 14:27:44;;;;;;;6.50;5.90;;;17.20;91.50;;;;;;5097749;28;20581;-71
2022/04/26 14:30:13;;;;;;;5.30;4.90;;;17.20;91.60;;;;;;5093890;28;20474;-72
2022/04/26 14:33:03;;;;;;;5.90;5.40;;;17.10;91.60;;;;;;5102437;28;20461;-71
2022/04/26 14:35:32;;;;;;;6.30;5.80;;;16.90;91.60;;;;;;5096136;28;20710;-72
2022/04/26 14:38:00;;;;;;;9.37;5.37;;;16.80;91.60;;;;;;5097637;28;20453;-72
2022/04/26 14:40:28;;;;;;;6.07;5.57;;;16.70;91.90;;;;;;5097225;28;20538;-71
2022/04/26 14:43:02;;;;;;;6.10;5.60;;;16.70;91.80;;;;;;5096714;28;20444;-72
2022/04/26 14:45:32;;;;;;;6.73;6.10;;;16.80;92.00;;;;;;5107154;28;20579;-71
2022/04/26 14:48:05;;;;;;;5.93;5.37;;;16.70;91.30;;;;;;5105819;28;20481;-71
2022/04/26 14:50:33;;;;;;;5.90;5.07;;;16.70;91.70;;;;;;5105397;28;20504;-71
2022/04/26 14:53:01;;;;;;;5.80;5.20;;;16.60;91.30;;;;;;5123193;27;20531;-73
2022/04/26 14:55:49;;;;;;;6.80;5.67;;;16.50;91.40;;;;;;5127325;27;20528;-72
2022/04/26 14:58:18;;;;;;;5.40;5.00;;;16.50;91.70;;;;;;5142230;27;20444;-72
2022/04/26 15:00:45;;;;;;;5.73;5.23;;;16.30;91.60;;;;;;5132421;27;20449;-71
2022/04/26 15:03:15;;;;;;;7.10;6.17;;;16.30;91.60;;;;;;5125562;27;20494;-72
2022/04/26 15:05:43;;;;;;;5.50;4.77;;;16.30;91.40;;;;;;5125265;27;20436;-71
2022/04/26 15:10:58;;;;;;;7.33;6.60;;;16.40;91.90;;;;;;5085401;28;20905;-70
2022/04/26 15:18:58;;;;;;;6.17;5.67;;;16.60;91.70;;;;;;5123688;27;20432;-70
2022/04/26 15:21:29;;;;;;;7.10;5.43;;;16.60;91.70;;;;;;5104091;28;20445;-72
2022/04/26 15:23:57;;;;;;;5.67;5.20;;;16.60;92.20;;;;;;5103324;28;20437;-71
2022/04/26 15:26:25;;;;;;;5.03;4.53;;;16.60;91.30;;;;;;5108933;27;20455;-72
2022/04/26 15:28:54;;;;;;;5.10;4.70;;;16.70;90.90;;;;;;5115018;27;20457;-72
2022/04/26 15:31:22;;;;;;;4.97;4.57;;;16.70;90.90;;;;;;5115691;27;20956;-72
2022/04/26 15:33:52;;;;;;;4.13;3.87;;;16.60;90.50;;;;;;5117940;27;20449;-72
2022/04/26 15:36:24;;;;;;;5.60;5.13;;;16.60;90.70;;;;;;5094527;28;20460;-71
2022/04/26 15:38:56;;;;;;;6.17;5.67;;;16.40;90.70;;;;;;5098538;28;20480;-72
2022/04/26 15:41:25;;;;;;;5.90;4.50;;;16.40;90.90;;;;;;5093950;28;21019;-72
2022/04/26 15:43:53;;;;;;;5.30;4.73;;;16.30;90.20;;;;;;5092930;28;20530;-71
2022/04/26 15:46:41;;;;;;;5.30;4.80;;;16.20;90.80;;;;;;5096022;28;20430;-74
2022/04/26 15:49:10;;;;;;;5.53;5.03;;;16.20;90.70;;;;;;5095643;28;20544;-72
2022/04/26 15:51:42;;;;;;;5.50;5.00;;;16.20;91.00;;;;;;5095527;28;20520;-72
2022/04/26 15:54:10;;;;;;;5.47;4.97;;;16.20;90.70;;;;;;5098787;28;20455;-72
2022/04/26 15:56:39;;;;;;;7.00;6.30;;;16.20;91.00;;;;;;5091155;28;20515;-71
2022/04/26 15:59:07;;;;;;;6.40;5.27;;;16.20;90.90;;;;;;5117158;27;20458;-72
2022/04/26 16:01:36;;;;;;;5.87;5.30;;;16.40;91.00;;;;;;5119025;27;20948;-71
2022/04/26 16:04:05;;;;;;;5.27;4.87;;;16.60;90.90;;;;;;5115337;27;20608;-70
2022/04/26 16:06:33;;;;;;;7.80;4.40;;;16.70;90.80;;;;;;5121963;27;20476;-70
2022/04/26 16:22:51;;;;;;;5.90;5.30;;;17.20;90.40;;;;;;5110851;27;20479;-70
2022/04/26 16:25:20;;;;;;;4.33;4.03;;;17.10;90.10;;;;;;5107753;27;21179;-70
2022/04/26 16:27:49;;;;;;;5.83;5.33;;;17.00;90.50;;;;;;5108806;27;20503;-70
2022/04/26 16:30:20;;;;;;;9.13;5.27;;;16.90;91.00;;;;;;5121814;27;20537;-73
2022/04/26 16:32:50;;;;;;;5.07;4.60;;;16.90;91.10;;;;;;5098029;27;20579;-73
2022/04/26 16:35:18;;;;;;;4.90;4.50;;;16.90;91.40;;;;;;5098009;27;20477;-75
2022/04/26 16:37:46;;;;;;;5.10;4.70;;;16.90;91.50;;;;;;5104572;27;20521;-76
2022/04/26 16:40:14;;;;;;;5.00;4.47;;;16.90;91.70;;;;;;5094309;28;20437;-74
2022/04/26 16:42:45;;;;;;;5.93;5.50;;;16.90;92.50;;;;;;5098012;27;20460;-74
2022/04/26 16:45:15;;;;;;;5.70;4.97;;;16.90;92.40;;;;;;5097911;27;20454;-74
2022/04/26 16:47:43;;;;;;;5.57;5.17;;;16.70;92.20;;;;;;5098076;27;20540;-73
2022/04/26 16:50:12;;;;;;;4.73;3.87;;;16.40;92.10;;;;;;5102399;27;20687;-72
2022/04/26 16:52:43;;;;;;;5.43;5.03;;;16.30;92.40;;;;;;5108908;27;20478;-73
2022/04/26 16:55:11;;;;;;;5.80;5.20;;;16.20;92.60;;;;;;5106522;27;20511;-73
2022/04/26 16:57:39;;;;;;;5.93;5.40;;;16.10;92.70;;;;;;5104195;27;20488;-72
2022/04/26 17:00:14;;;;;;;6.50;6.00;;;16.00;93.00;;;;;;5103831;27;20517;-71
2022/04/26 17:02:42;;;;;;;8.63;5.60;;;15.90;93.10;;;;;;5095491;27;20457;-74
2022/04/26 17:05:11;;;;;;;5.90;5.40;;;15.90;93.40;;;;;;5099279;27;20462;-71
2022/04/26 17:07:46;;;;;;;7.20;5.83;;;15.80;93.40;;;;;;5102383;27;21096;-71
2022/04/26 17:10:15;;;;;;;5.93;5.50;;;16.00;93.10;;;;;;5096225;28;20442;-75
2022/04/26 17:12:44;;;;;;;6.67;5.27;;;16.10;93.60;;;;;;5104438;27;20549;-73
2022/04/26 17:15:15;;;;;;;5.10;4.70;;;16.20;94.00;;;;;;5110607;27;20462;-71
2022/04/26 17:17:44;;;;;;;6.13;5.20;;;16.20;94.40;;;;;;5120255;27;20518;-71
2022/04/26 17:20:13;;;;;;;5.53;4.97;;;16.00;94.60;;;;;;5121823;27;20443;-72
2022/04/26 17:22:42;;;;;;;5.00;4.60;;;15.80;94.80;;;;;;5108792;27;20457;-70
2022/04/26 17:25:14;;;;;;;6.27;5.17;;;15.60;94.60;;;;;;5100153;27;20578;-71
2022/04/26 17:28:07;;;;;;;6.13;5.63;;;15.40;94.70;;;;;;5096337;28;20436;-71
2022/04/26 17:30:37;;;;;;;5.83;5.20;;;15.30;94.70;;;;;;5092174;28;21158;-70